Annette, Alaska
Current Conditions -  °F | °C
As of 9:53 PM on Thursday 27 Nov 2014 (Local Time) from PANT Reporting Station
Clear Clear  
Wind Chill: -3°   Ceiling: Unl
Heat Index:   Visibility: 10mi
Dew Point: -8°   Wind: 5mph
Humidity: 54%   Direction: 50°NE
Pressure: 29.82"   Gusts: NA
Location:  55.05°N, 131.6°W
Report Text: PANT 280653Z AUTO 05004KT 10SM CLR 00/M08 A2982 RMK AO2 SLP100 T00001083 TSNO
Loading
Personal Weather Stations






























Interactive Weather Map New forecast layout! Learn more

10-Day Weather Forecast

Advertisements
Track Severe Weather on mobile